Hengist.it
  Home
 Volo reale
   Pilot Logbook
   Private Pilot Licence
   I miei aerei
   Scuola volo FlySabaudia
   Aeroporto dell'Urbe
   Galleria fotografica
   Galleria video
 Volo virtuale
   Ivao
   Flight Simulator
   Air Traffic Control
   VFR Tour 2007
   VFR World Tour 2008
 
 Servizi
   Meteo & Notam
   Airports & Navaids
   Effemeridi
   Forum A.O.P.A.
   Pagina degli ospiti
   Contatti
   Links
 
 Altri Hobbies
   A.S. Roma
   Home Cinema
   X-Box 360 / PC
 
 
   VFR Tour 2007

Il piano di volo




>>>> Il tragitto sulla mappa <<<<


I serbatoi sono pieni, le condizioni atmosferiche sono buone:

Dopo una sana dormita (e dopo una abbondante cena da Ciro a Mare), si riparte!

LIRN 311815Z 29003KT 9999 FEW025 SCT060 18/10 Q1012 NOSIG

Le condizioni oggi sono decisamente migliori... vento debole, ottima visibilitą, poche nuvole.... si riparte!



la Torre mi autorizza all'allineamento ed al decollo dalla 06




dopo il passaggio su Capri, chiedo l'autorizzazione a Napoli Torre per un touch-and-go sulla 24, passando da Ischia...




Napoli Torre mi mette di stand-by su Ischia (giustamente da' la precedenza al traffico commerciale), per cui ne approfitto per un giro a bassa quota su questa splendida isola...



<<< Indietro


 
 

© 2000-2007 Hengist.it - Tutti i diritti riservati